Terminal Aerodrome Forecast
Issued by NWS

Home | Current Version | Previous Version | Text Only | Print | Product List | Glossary On
Versions: 1 2 3 4 5 6 7 8 9 10 11 12 13 14 15 16 17 18 19 20 21 22 23 24
000
FTUS42 KMLB 301227 AAA
TAFTIX
TAF AMD
KTIX 301227Z 3012/3112 24008KT 4SM BR HZ BKN003
      TEMPO 3013/3014 6SM HZ SCT005 BKN010
     FM301400 23008KT P6SM SCT020 SCT050 BKN250
     FM301900 22009KT P6SM VCTS SCT035CB SCT100 BKN250
     FM310000 23003KT P6SM FEW035 BKN250=

USA.gov is the U.S. government's official web portal to all federal, state and local government web resources and services.